sensor_id;sensor_type;location;lat;lon;timestamp;pressure;altitude;pressure_sealevel;temperature;humidity
63033;BME280;49121;38.932;-9.018;2023-03-31T00:00:45;111992.50;;;-145.11;90.15
63033;BME280;49121;38.932;-9.018;2023-03-31T00:02:46;111992.50;;;-145.11;90.59
63033;BME280;49121;38.932;-9.018;2023-03-31T00:04:47;111992.50;;;-145.11;90.42
63033;BME280;49121;38.932;-9.018;2023-03-31T00:06:51;111992.50;;;-145.11;90.31
63033;BME280;49121;38.932;-9.018;2023-03-31T00:09:12;111992.50;;;-145.11;90.37
63033;BME280;49121;38.932;-9.018;2023-03-31T00:11:15;111992.50;;;-145.11;90.38
63033;BME280;49121;38.932;-9.018;2023-03-31T00:13:15;111992.50;;;-145.11;90.37
63033;BME280;49121;38.932;-9.018;2023-03-31T00:15:16;111992.50;;;-145.11;90.45
63033;BME280;49121;38.932;-9.018;2023-03-31T00:17:16;111992.50;;;-145.11;90.34
63033;BME280;49121;38.932;-9.018;2023-03-31T00:19:17;111992.50;;;-145.11;90.64
63033;BME280;49121;38.932;-9.018;2023-03-31T00:21:20;111992.50;;;-145.11;90.60
63033;BME280;49121;38.932;-9.018;2023-03-31T00:23:32;111992.50;;;-145.11;90.60
63033;BME280;49121;38.932;-9.018;2023-03-31T00:25:33;111992.50;;;-145.11;90.61
63033;BME280;49121;38.932;-9.018;2023-03-31T00:27:33;111992.50;;;-145.11;90.39
63033;BME280;49121;38.932;-9.018;2023-03-31T00:29:34;111992.50;;;-145.11;89.90
63033;BME280;49121;38.932;-9.018;2023-03-31T00:31:38;111992.50;;;-145.11;89.83
63033;BME280;49121;38.932;-9.018;2023-03-31T00:33:38;111992.50;;;-145.11;89.85
63033;BME280;49121;38.932;-9.018;2023-03-31T00:35:39;111992.50;;;-145.11;89.82
63033;BME280;49121;38.932;-9.018;2023-03-31T00:37:39;111992.50;;;-145.11;89.74
63033;BME280;49121;38.932;-9.018;2023-03-31T00:39:42;111992.50;;;-145.11;90.03
63033;BME280;49121;38.932;-9.018;2023-03-31T00:41:42;111992.50;;;-145.11;89.70
63033;BME280;49121;38.932;-9.018;2023-03-31T00:46:26;111992.50;;;-145.11;90.09
63033;BME280;49121;38.932;-9.018;2023-03-31T00:48:29;111992.50;;;-145.11;90.27
63033;BME280;49121;38.932;-9.018;2023-03-31T00:50:31;111992.50;;;-145.11;91.01
63033;BME280;49121;38.932;-9.018;2023-03-31T00:54:53;111992.50;;;-145.11;91.16
63033;BME280;49121;38.932;-9.018;2023-03-31T00:56:55;111992.50;;;-145.11;91.05
63033;BME280;49121;38.932;-9.018;2023-03-31T00:58:59;111992.50;;;-145.11;90.99
63033;BME280;49121;38.932;-9.018;2023-03-31T01:01:01;111992.50;;;-145.11;91.38
63033;BME280;49121;38.932;-9.018;2023-03-31T01:03:04;111992.50;;;-145.11;91.42
63033;BME280;49121;38.932;-9.018;2023-03-31T01:05:07;111992.50;;;-145.11;90.85
63033;BME280;49121;38.932;-9.018;2023-03-31T01:09:31;111992.50;;;-145.11;91.05
63033;BME280;49121;38.932;-9.018;2023-03-31T01:11:52;111992.50;;;-145.11;90.85
63033;BME280;49121;38.932;-9.018;2023-03-31T01:13:53;111992.50;;;-145.11;90.91
63033;BME280;49121;38.932;-9.018;2023-03-31T01:15:55;111992.50;;;-145.11;91.16
63033;BME280;49121;38.932;-9.018;2023-03-31T01:17:55;111992.50;;;-145.11;90.85
63033;BME280;49121;38.932;-9.018;2023-03-31T01:39:08;111992.50;;;-145.11;89.71
63033;BME280;49121;38.932;-9.018;2023-03-31T01:48:03;111992.50;;;-145.11;89.25
63033;BME280;49121;38.932;-9.018;2023-03-31T01:50:09;111992.50;;;-145.11;89.47
63033;BME280;49121;38.932;-9.018;2023-03-31T01:52:18;111992.50;;;-145.11;89.66
63033;BME280;49121;38.932;-9.018;2023-03-31T01:55:04;111992.50;;;-145.11;89.88
63033;BME280;49121;38.932;-9.018;2023-03-31T01:59:14;111992.50;;;-145.11;90.13
63033;BME280;49121;38.932;-9.018;2023-03-31T02:01:19;111992.50;;;-145.11;89.96
63033;BME280;49121;38.932;-9.018;2023-03-31T02:03:22;111992.50;;;-145.11;89.52
63033;BME280;49121;38.932;-9.018;2023-03-31T02:05:26;111992.50;;;-145.11;89.15
63033;BME280;49121;38.932;-9.018;2023-03-31T02:07:31;111992.50;;;-145.11;89.33
63033;BME280;49121;38.932;-9.018;2023-03-31T02:09:36;111992.50;;;-145.11;89.17
63033;BME280;49121;38.932;-9.018;2023-03-31T02:13:59;111992.50;;;-145.11;89.47
63033;BME280;49121;38.932;-9.018;2023-03-31T02:16:04;111992.50;;;-145.11;89.68
63033;BME280;49121;38.932;-9.018;2023-03-31T02:18:06;111992.50;;;-145.11;89.55
63033;BME280;49121;38.932;-9.018;2023-03-31T02:20:28;111992.50;;;-145.11;89.55
63033;BME280;49121;38.932;-9.018;2023-03-31T02:22:32;111992.50;;;-145.11;89.48
63033;BME280;49121;38.932;-9.018;2023-03-31T02:24:35;111992.50;;;-145.11;89.34
63033;BME280;49121;38.932;-9.018;2023-03-31T02:26:39;111992.50;;;-145.11;89.19
63033;BME280;49121;38.932;-9.018;2023-03-31T02:28:41;111992.50;;;-145.11;88.96
63033;BME280;49121;38.932;-9.018;2023-03-31T02:33:03;111992.50;;;-145.11;88.59
63033;BME280;49121;38.932;-9.018;2023-03-31T02:35:05;111992.50;;;-145.11;88.30
63033;BME280;49121;38.932;-9.018;2023-03-31T02:37:07;111992.50;;;-145.11;88.35
63033;BME280;49121;38.932;-9.018;2023-03-31T02:39:08;111992.50;;;-145.11;87.79
63033;BME280;49121;38.932;-9.018;2023-03-31T02:41:29;111992.50;;;-145.11;88.11
63033;BME280;49121;38.932;-9.018;2023-03-31T02:43:30;111992.50;;;-145.11;87.89
63033;BME280;49121;38.932;-9.018;2023-03-31T02:45:50;111992.50;;;-145.11;87.81
63033;BME280;49121;38.932;-9.018;2023-03-31T02:47:50;111992.50;;;-145.11;87.59
63033;BME280;49121;38.932;-9.018;2023-03-31T02:49:52;111992.50;;;-145.11;87.72
63033;BME280;49121;38.932;-9.018;2023-03-31T02:54:16;111992.50;;;-145.11;87.59
63033;BME280;49121;38.932;-9.018;2023-03-31T02:56:40;111992.50;;;-145.11;87.52
63033;BME280;49121;38.932;-9.018;2023-03-31T03:01:14;111992.50;;;-145.11;86.97
63033;BME280;49121;38.932;-9.018;2023-03-31T03:03:57;111992.50;;;-145.11;86.77
63033;BME280;49121;38.932;-9.018;2023-03-31T03:06:25;111992.50;;;-145.11;86.68
63033;BME280;49121;38.932;-9.018;2023-03-31T03:15:31;111992.50;;;-145.11;86.67
63033;BME280;49121;38.932;-9.018;2023-03-31T03:20:11;111992.50;;;-145.11;86.82
63033;BME280;49121;38.932;-9.018;2023-03-31T03:22:11;111992.50;;;-145.11;87.03
63033;BME280;49121;38.932;-9.018;2023-03-31T03:24:31;111992.50;;;-145.11;86.97
63033;BME280;49121;38.932;-9.018;2023-03-31T03:26:33;111992.50;;;-145.11;87.02
63033;BME280;49121;38.932;-9.018;2023-03-31T03:28:34;111992.50;;;-145.11;86.94
63033;BME280;49121;38.932;-9.018;2023-03-31T03:30:35;111992.50;;;-145.11;87.02
63033;BME280;49121;38.932;-9.018;2023-03-31T03:32:35;111992.50;;;-145.11;87.07
63033;BME280;49121;38.932;-9.018;2023-03-31T03:34:36;111992.50;;;-145.11;87.19
63033;BME280;49121;38.932;-9.018;2023-03-31T03:38:55;111992.50;;;-145.11;87.29
63033;BME280;49121;38.932;-9.018;2023-03-31T03:40:56;111992.50;;;-145.11;87.65
63033;BME280;49121;38.932;-9.018;2023-03-31T03:52:50;111992.50;;;-145.11;88.26
63033;BME280;49121;38.932;-9.018;2023-03-31T03:57:11;111992.50;;;-145.11;88.25
63033;BME280;49121;38.932;-9.018;2023-03-31T04:02:08;111992.50;;;-145.11;88.23
63033;BME280;49121;38.932;-9.018;2023-03-31T04:04:27;111992.50;;;-145.11;88.24
63033;BME280;49121;38.932;-9.018;2023-03-31T04:06:27;111992.50;;;-145.11;88.14
63033;BME280;49121;38.932;-9.018;2023-03-31T04:08:29;111992.50;;;-145.11;88.51
63033;BME280;49121;38.932;-9.018;2023-03-31T04:10:29;111992.50;;;-145.11;88.65
63033;BME280;49121;38.932;-9.018;2023-03-31T04:12:30;111992.50;;;-145.11;88.65
63033;BME280;49121;38.932;-9.018;2023-03-31T04:14:33;111992.50;;;-145.11;88.88
63033;BME280;49121;38.932;-9.018;2023-03-31T04:16:33;111992.50;;;-145.11;89.80
63033;BME280;49121;38.932;-9.018;2023-03-31T04:18:34;111992.50;;;-145.11;89.80
63033;BME280;49121;38.932;-9.018;2023-03-31T04:20:36;111992.50;;;-145.11;90.15
63033;BME280;49121;38.932;-9.018;2023-03-31T04:22:37;111992.50;;;-145.11;90.47
63033;BME280;49121;38.932;-9.018;2023-03-31T04:26:59;111992.50;;;-145.11;91.03
63033;BME280;49121;38.932;-9.018;2023-03-31T04:29:00;111992.50;;;-145.11;91.72
63033;BME280;49121;38.932;-9.018;2023-03-31T04:31:01;111992.50;;;-145.11;91.88
63033;BME280;49121;38.932;-9.018;2023-03-31T04:33:01;111992.50;;;-145.11;92.23
63033;BME280;49121;38.932;-9.018;2023-03-31T04:35:03;111992.50;;;-145.11;92.99
63033;BME280;49121;38.932;-9.018;2023-03-31T04:37:04;111992.50;;;-145.11;93.21
63033;BME280;49121;38.932;-9.018;2023-03-31T04:39:04;111992.50;;;-145.11;93.84
63033;BME280;49121;38.932;-9.018;2023-03-31T04:41:05;111992.50;;;-145.11;94.18
63033;BME280;49121;38.932;-9.018;2023-03-31T04:43:07;111992.50;;;-145.11;94.04
63033;BME280;49121;38.932;-9.018;2023-03-31T04:47:26;111992.50;;;-145.11;94.69
63033;BME280;49121;38.932;-9.018;2023-03-31T04:49:27;111992.50;;;-145.11;94.18
63033;BME280;49121;38.932;-9.018;2023-03-31T04:51:27;111992.50;;;-145.11;94.21
63033;BME280;49121;38.932;-9.018;2023-03-31T04:53:28;111992.50;;;-145.11;94.29
63033;BME280;49121;38.932;-9.018;2023-03-31T04:55:28;111992.50;;;-145.11;94.72
63033;BME280;49121;38.932;-9.018;2023-03-31T04:57:29;111992.50;;;-145.11;94.69
63033;BME280;49121;38.932;-9.018;2023-03-31T04:59:29;111992.50;;;-145.11;94.58
63033;BME280;49121;38.932;-9.018;2023-03-31T05:01:30;111992.50;;;-145.11;94.94
63033;BME280;49121;38.932;-9.018;2023-03-31T05:03:35;111992.50;;;-145.11;94.93
63033;BME280;49121;38.932;-9.018;2023-03-31T05:05:35;111992.50;;;-145.11;94.99
63033;BME280;49121;38.932;-9.018;2023-03-31T05:07:36;111992.50;;;-145.11;94.97
63033;BME280;49121;38.932;-9.018;2023-03-31T05:09:55;111992.50;;;-145.11;95.02
63033;BME280;49121;38.932;-9.018;2023-03-31T05:11:56;111992.50;;;-145.11;94.98
63033;BME280;49121;38.932;-9.018;2023-03-31T05:13:56;111992.50;;;-145.11;95.14
63033;BME280;49121;38.932;-9.018;2023-03-31T05:15:57;111992.50;;;-145.11;95.31
63033;BME280;49121;38.932;-9.018;2023-03-31T05:18:16;111992.50;;;-145.11;95.33
63033;BME280;49121;38.932;-9.018;2023-03-31T05:22:55;111992.50;;;-145.11;95.08
63033;BME280;49121;38.932;-9.018;2023-03-31T05:24:55;111992.50;;;-145.11;94.86
63033;BME280;49121;38.932;-9.018;2023-03-31T05:27:14;111992.50;;;-145.11;94.85
63033;BME280;49121;38.932;-9.018;2023-03-31T05:29:15;111992.50;;;-145.11;94.77
63033;BME280;49121;38.932;-9.018;2023-03-31T05:31:16;111992.50;;;-145.11;94.97
63033;BME280;49121;38.932;-9.018;2023-03-31T05:35:39;111992.50;;;-145.11;94.84
63033;BME280;49121;38.932;-9.018;2023-03-31T05:37:39;111992.50;;;-145.11;94.71
63033;BME280;49121;38.932;-9.018;2023-03-31T05:39:40;111992.50;;;-145.11;94.62
63033;BME280;49121;38.932;-9.018;2023-03-31T05:41:40;111992.50;;;-145.11;94.31
63033;BME280;49121;38.932;-9.018;2023-03-31T05:43:42;111992.50;;;-145.11;94.45
63033;BME280;49121;38.932;-9.018;2023-03-31T05:48:25;111992.50;;;-145.11;94.13
63033;BME280;49121;38.932;-9.018;2023-03-31T05:50:26;111992.50;;;-145.11;93.80
63033;BME280;49121;38.932;-9.018;2023-03-31T05:52:26;111992.50;;;-145.11;93.65
63033;BME280;49121;38.932;-9.018;2023-03-31T05:54:27;111992.50;;;-145.11;93.34
63033;BME280;49121;38.932;-9.018;2023-03-31T05:56:27;111992.50;;;-145.11;92.91
63033;BME280;49121;38.932;-9.018;2023-03-31T05:58:28;111992.50;;;-145.11;92.08
63033;BME280;49121;38.932;-9.018;2023-03-31T06:00:29;111992.50;;;-145.11;92.04
63033;BME280;49121;38.932;-9.018;2023-03-31T06:02:31;111992.50;;;-145.11;91.98
63033;BME280;49121;38.932;-9.018;2023-03-31T06:14:44;111992.50;;;-145.11;91.58
63033;BME280;49121;38.932;-9.018;2023-03-31T06:16:44;111992.50;;;-145.11;91.52
63033;BME280;49121;38.932;-9.018;2023-03-31T06:18:47;111992.50;;;-145.11;91.50
63033;BME280;49121;38.932;-9.018;2023-03-31T06:20:48;111992.50;;;-145.11;91.49
63033;BME280;49121;38.932;-9.018;2023-03-31T06:22:48;111992.50;;;-145.11;91.50
63033;BME280;49121;38.932;-9.018;2023-03-31T06:25:07;111992.50;;;-145.11;91.36
63033;BME280;49121;38.932;-9.018;2023-03-31T06:34:43;111992.50;;;-145.11;90.62
63033;BME280;49121;38.932;-9.018;2023-03-31T06:36:43;111992.50;;;-145.11;90.35
63033;BME280;49121;38.932;-9.018;2023-03-31T06:38:45;111992.50;;;-145.11;90.00
63033;BME280;49121;38.932;-9.018;2023-03-31T06:43:24;111992.50;;;-145.11;88.60
63033;BME280;49121;38.932;-9.018;2023-03-31T06:45:24;111992.50;;;-145.11;88.32
63033;BME280;49121;38.932;-9.018;2023-03-31T06:47:25;111992.50;;;-145.11;87.75
63033;BME280;49121;38.932;-9.018;2023-03-31T06:49:25;111992.50;;;-145.11;87.35
63033;BME280;49121;38.932;-9.018;2023-03-31T06:51:26;111992.50;;;-145.11;86.97
63033;BME280;49121;38.932;-9.018;2023-03-31T06:53:26;111992.50;;;-145.11;86.63
63033;BME280;49121;38.932;-9.018;2023-03-31T06:55:27;111992.50;;;-145.11;86.24
63033;BME280;49121;38.932;-9.018;2023-03-31T06:57:28;111992.50;;;-145.11;85.83
63033;BME280;49121;38.932;-9.018;2023-03-31T06:59:29;111992.50;;;-145.11;85.68
63033;BME280;49121;38.932;-9.018;2023-03-31T07:01:29;111992.50;;;-145.11;85.43
63033;BME280;49121;38.932;-9.018;2023-03-31T07:03:30;111992.50;;;-145.11;85.13
63033;BME280;49121;38.932;-9.018;2023-03-31T07:05:31;111992.50;;;-145.11;84.84
63033;BME280;49121;38.932;-9.018;2023-03-31T07:07:32;111992.50;;;-145.11;84.38
63033;BME280;49121;38.932;-9.018;2023-03-31T07:09:33;111992.50;;;-145.11;83.83
63033;BME280;49121;38.932;-9.018;2023-03-31T07:13:55;111992.50;;;-145.11;82.36
63033;BME280;49121;38.932;-9.018;2023-03-31T07:15:56;111992.50;;;-145.11;81.77
63033;BME280;49121;38.932;-9.018;2023-03-31T07:17:56;111992.50;;;-145.11;81.59
63033;BME280;49121;38.932;-9.018;2023-03-31T07:20:04;111992.50;;;-145.11;81.19
63033;BME280;49121;38.932;-9.018;2023-03-31T07:22:11;111992.50;;;-145.11;80.20
63033;BME280;49121;38.932;-9.018;2023-03-31T07:26:52;111992.50;;;-145.11;77.02
63033;BME280;49121;38.932;-9.018;2023-03-31T07:28:55;111992.50;;;-145.11;75.33
63033;BME280;49121;38.932;-9.018;2023-03-31T07:30:56;111992.50;;;-145.11;74.53
63033;BME280;49121;38.932;-9.018;2023-03-31T07:32:57;111992.50;;;-145.11;74.75
63033;BME280;49121;38.932;-9.018;2023-03-31T07:34:58;111992.50;;;-145.11;74.56
63033;BME280;49121;38.932;-9.018;2023-03-31T07:37:01;111992.50;;;-145.11;74.41
63033;BME280;49121;38.932;-9.018;2023-03-31T07:39:04;111992.50;;;-145.11;74.51
63033;BME280;49121;38.932;-9.018;2023-03-31T07:41:05;111992.50;;;-145.11;74.18
63033;BME280;49121;38.932;-9.018;2023-03-31T07:43:06;111992.50;;;-145.11;73.87
63033;BME280;49121;38.932;-9.018;2023-03-31T07:45:07;111992.50;;;-145.11;74.05
63033;BME280;49121;38.932;-9.018;2023-03-31T07:47:08;111992.50;;;-145.11;72.73
63033;BME280;49121;38.932;-9.018;2023-03-31T07:49:11;111992.50;;;-145.11;72.06
63033;BME280;49121;38.932;-9.018;2023-03-31T07:51:15;111992.50;;;-145.11;71.62
63033;BME280;49121;38.932;-9.018;2023-03-31T07:53:16;111992.50;;;-145.11;70.30
63033;BME280;49121;38.932;-9.018;2023-03-31T07:55:17;111992.50;;;-145.11;68.45
63033;BME280;49121;38.932;-9.018;2023-03-31T07:57:19;111992.50;;;-145.11;68.33
63033;BME280;49121;38.932;-9.018;2023-03-31T07:59:19;111992.50;;;-145.11;68.97
63033;BME280;49121;38.932;-9.018;2023-03-31T08:01:21;111992.50;;;-145.11;69.00
63033;BME280;49121;38.932;-9.018;2023-03-31T08:03:24;111992.50;;;-145.11;68.55
63033;BME280;49121;38.932;-9.018;2023-03-31T08:05:26;111992.50;;;-145.11;68.30
63033;BME280;49121;38.932;-9.018;2023-03-31T08:07:27;111992.50;;;-145.11;69.36
63033;BME280;49121;38.932;-9.018;2023-03-31T08:09:30;111992.50;;;-145.11;68.84
63033;BME280;49121;38.932;-9.018;2023-03-31T08:11:35;111992.50;;;-145.11;67.49
63033;BME280;49121;38.932;-9.018;2023-03-31T08:13:36;111992.50;;;-145.11;67.00
63033;BME280;49121;38.932;-9.018;2023-03-31T08:15:36;111992.50;;;-145.11;66.21
63033;BME280;49121;38.932;-9.018;2023-03-31T08:17:37;111992.50;;;-145.11;66.60
63033;BME280;49121;38.932;-9.018;2023-03-31T08:19:39;111992.50;;;-145.11;65.98
63033;BME280;49121;38.932;-9.018;2023-03-31T08:21:40;111992.50;;;-145.11;65.74
63033;BME280;49121;38.932;-9.018;2023-03-31T08:23:40;111992.50;;;-145.11;64.74
63033;BME280;49121;38.932;-9.018;2023-03-31T08:25:42;111992.50;;;-145.11;65.91
63033;BME280;49121;38.932;-9.018;2023-03-31T08:27:42;111992.50;;;-145.11;66.95
63033;BME280;49121;38.932;-9.018;2023-03-31T08:29:43;111992.50;;;-145.11;67.60
63033;BME280;49121;38.932;-9.018;2023-03-31T08:31:58;111992.50;;;-145.11;68.19
63033;BME280;49121;38.932;-9.018;2023-03-31T08:33:59;111992.50;;;-145.11;68.11
63033;BME280;49121;38.932;-9.018;2023-03-31T08:36:04;111992.50;;;-145.11;68.26
63033;BME280;49121;38.932;-9.018;2023-03-31T08:38:08;111992.50;;;-145.11;68.39
63033;BME280;49121;38.932;-9.018;2023-03-31T08:40:13;111992.50;;;-145.11;67.71
63033;BME280;49121;38.932;-9.018;2023-03-31T08:42:21;111992.50;;;-145.11;66.14
63033;BME280;49121;38.932;-9.018;2023-03-31T08:44:38;111992.50;;;-145.11;65.91
63033;BME280;49121;38.932;-9.018;2023-03-31T08:46:44;111992.50;;;-145.11;67.41
63033;BME280;49121;38.932;-9.018;2023-03-31T08:48:56;111992.50;;;-145.11;67.68
63033;BME280;49121;38.932;-9.018;2023-03-31T08:51:11;111992.50;;;-145.11;68.27
63033;BME280;49121;38.932;-9.018;2023-03-31T08:53:27;111992.50;;;-145.11;69.11
63033;BME280;49121;38.932;-9.018;2023-03-31T08:55:39;111992.50;;;-145.11;69.49
63033;BME280;49121;38.932;-9.018;2023-03-31T08:57:46;111992.50;;;-145.11;69.55
63033;BME280;49121;38.932;-9.018;2023-03-31T08:59:55;111992.50;;;-145.11;67.91
63033;BME280;49121;38.932;-9.018;2023-03-31T09:04:55;111992.50;;;-145.11;67.92
63033;BME280;49121;38.932;-9.018;2023-03-31T09:09:13;111992.50;;;-145.11;67.91
63033;BME280;49121;38.932;-9.018;2023-03-31T09:11:23;111992.50;;;-145.11;69.21
63033;BME280;49121;38.932;-9.018;2023-03-31T09:15:51;111992.50;;;-145.11;70.60
63033;BME280;49121;38.932;-9.018;2023-03-31T09:17:59;111992.50;;;-145.11;69.76
63033;BME280;49121;38.932;-9.018;2023-03-31T09:20:28;111992.50;;;-145.11;69.05
63033;BME280;49121;38.932;-9.018;2023-03-31T09:22:33;111992.50;;;-145.11;67.23
63033;BME280;49121;38.932;-9.018;2023-03-31T09:24:46;111992.50;;;-145.11;65.39
63033;BME280;49121;38.932;-9.018;2023-03-31T09:26:50;111992.50;;;-145.11;62.40
63033;BME280;49121;38.932;-9.018;2023-03-31T09:28:52;111992.50;;;-145.11;60.06
63033;BME280;49121;38.932;-9.018;2023-03-31T09:30:55;111992.50;;;-145.11;57.23
63033;BME280;49121;38.932;-9.018;2023-03-31T09:33:25;111992.50;;;-145.11;57.03
63033;BME280;49121;38.932;-9.018;2023-03-31T09:35:18;111992.50;;;-145.11;58.90
63033;BME280;49121;38.932;-9.018;2023-03-31T09:37:20;111992.50;;;-145.11;60.60
63033;BME280;49121;38.932;-9.018;2023-03-31T09:39:21;111992.50;;;-145.11;62.92
63033;BME280;49121;38.932;-9.018;2023-03-31T09:41:22;111992.50;;;-145.11;64.37
63033;BME280;49121;38.932;-9.018;2023-03-31T09:43:23;111992.50;;;-145.11;63.97
63033;BME280;49121;38.932;-9.018;2023-03-31T09:45:25;111992.50;;;-145.11;64.74
63033;BME280;49121;38.932;-9.018;2023-03-31T09:48:12;111992.50;;;-145.11;65.11
63033;BME280;49121;38.932;-9.018;2023-03-31T09:49:47;111992.50;;;-145.11;65.67
63033;BME280;49121;38.932;-9.018;2023-03-31T09:51:52;111992.50;;;-145.11;65.27
63033;BME280;49121;38.932;-9.018;2023-03-31T09:54:06;111992.50;;;-145.11;64.73
63033;BME280;49121;38.932;-9.018;2023-03-31T09:56:09;111992.50;;;-145.11;64.22
63033;BME280;49121;38.932;-9.018;2023-03-31T09:58:11;111992.50;;;-145.11;63.17
63033;BME280;49121;38.932;-9.018;2023-03-31T10:00:14;111992.50;;;-145.11;62.58
63033;BME280;49121;38.932;-9.018;2023-03-31T10:04:22;111992.50;;;-145.11;58.84
63033;BME280;49121;38.932;-9.018;2023-03-31T10:06:26;111992.50;;;-145.11;57.35
63033;BME280;49121;38.932;-9.018;2023-03-31T10:08:30;111992.50;;;-145.11;57.64
63033;BME280;49121;38.932;-9.018;2023-03-31T10:10:32;111992.50;;;-145.11;56.58
63033;BME280;49121;38.932;-9.018;2023-03-31T10:12:32;111992.50;;;-145.11;56.26
63033;BME280;49121;38.932;-9.018;2023-03-31T10:14:40;111992.50;;;-145.11;56.41
63033;BME280;49121;38.932;-9.018;2023-03-31T10:16:48;111992.50;;;-145.11;56.76
63033;BME280;49121;38.932;-9.018;2023-03-31T10:18:49;111992.50;;;-145.11;57.34
63033;BME280;49121;38.932;-9.018;2023-03-31T10:20:50;111992.50;;;-145.11;58.35
63033;BME280;49121;38.932;-9.018;2023-03-31T10:22:51;111992.50;;;-145.11;59.05
63033;BME280;49121;38.932;-9.018;2023-03-31T10:24:52;111992.50;;;-145.11;60.06
63033;BME280;49121;38.932;-9.018;2023-03-31T10:26:53;111992.50;;;-145.11;60.15
63033;BME280;49121;38.932;-9.018;2023-03-31T10:28:54;111992.50;;;-145.11;59.64
63033;BME280;49121;38.932;-9.018;2023-03-31T10:30:56;111992.50;;;-145.11;58.99
63033;BME280;49121;38.932;-9.018;2023-03-31T10:33:04;111992.50;;;-145.11;59.30
63033;BME280;49121;38.932;-9.018;2023-03-31T10:35:06;111992.50;;;-145.11;59.56
63033;BME280;49121;38.932;-9.018;2023-03-31T10:37:10;111992.50;;;-145.11;57.96
63033;BME280;49121;38.932;-9.018;2023-03-31T10:39:16;111992.50;;;-145.11;57.62
63033;BME280;49121;38.932;-9.018;2023-03-31T10:41:18;111992.50;;;-145.11;56.58
63033;BME280;49121;38.932;-9.018;2023-03-31T10:43:41;111992.50;;;-145.11;56.67
63033;BME280;49121;38.932;-9.018;2023-03-31T10:45:49;111992.50;;;-145.11;56.29
63033;BME280;49121;38.932;-9.018;2023-03-31T10:47:51;111992.50;;;-145.11;56.92
63033;BME280;49121;38.932;-9.018;2023-03-31T10:49:55;111992.50;;;-145.11;57.65
63033;BME280;49121;38.932;-9.018;2023-03-31T10:51:58;111992.50;;;-145.11;57.99
63033;BME280;49121;38.932;-9.018;2023-03-31T10:54:18;111992.50;;;-145.11;58.50
63033;BME280;49121;38.932;-9.018;2023-03-31T11:03:07;111992.50;;;-145.11;59.05
63033;BME280;49121;38.932;-9.018;2023-03-31T11:05:13;111992.50;;;-145.11;59.12
63033;BME280;49121;38.932;-9.018;2023-03-31T11:11:48;111992.50;;;-145.11;58.41
63033;BME280;49121;38.932;-9.018;2023-03-31T11:13:59;111992.50;;;-145.11;58.77
63033;BME280;49121;38.932;-9.018;2023-03-31T11:16:07;111992.50;;;-145.11;59.97
63033;BME280;49121;38.932;-9.018;2023-03-31T11:18:31;111992.50;;;-145.11;60.02
63033;BME280;49121;38.932;-9.018;2023-03-31T11:25:19;111992.50;;;-145.11;56.84
63033;BME280;49121;38.932;-9.018;2023-03-31T11:31:29;111992.50;;;-145.11;56.32
63033;BME280;49121;38.932;-9.018;2023-03-31T11:41:48;111992.50;;;-145.11;58.60
63033;BME280;49121;38.932;-9.018;2023-03-31T11:43:51;111992.50;;;-145.11;57.30
63033;BME280;49121;38.932;-9.018;2023-03-31T11:45:53;111992.50;;;-145.11;57.50
63033;BME280;49121;38.932;-9.018;2023-03-31T11:47:58;111992.50;;;-145.11;57.10
63033;BME280;49121;38.932;-9.018;2023-03-31T11:50:21;111992.50;;;-145.11;56.24
63033;BME280;49121;38.932;-9.018;2023-03-31T11:52:28;111992.50;;;-145.11;55.04
63033;BME280;49121;38.932;-9.018;2023-03-31T11:56:42;111992.50;;;-145.11;56.47
63033;BME280;49121;38.932;-9.018;2023-03-31T11:58:49;111992.50;;;-145.11;57.04
63033;BME280;49121;38.932;-9.018;2023-03-31T12:03:12;111992.50;;;-145.11;54.13
63033;BME280;49121;38.932;-9.018;2023-03-31T12:05:15;111992.50;;;-145.11;53.22
63033;BME280;49121;38.932;-9.018;2023-03-31T12:07:23;111992.50;;;-145.11;53.23
63033;BME280;49121;38.932;-9.018;2023-03-31T12:12:41;111992.50;;;-145.11;52.20
63033;BME280;49121;38.932;-9.018;2023-03-31T12:17:07;111992.50;;;-145.11;51.96
63033;BME280;49121;38.932;-9.018;2023-03-31T12:19:10;111992.50;;;-145.11;52.67
63033;BME280;49121;38.932;-9.018;2023-03-31T12:21:13;111992.50;;;-145.11;52.29
63033;BME280;49121;38.932;-9.018;2023-03-31T12:23:15;111992.50;;;-145.11;53.15
63033;BME280;49121;38.932;-9.018;2023-03-31T12:25:20;111992.50;;;-145.11;53.56
63033;BME280;49121;38.932;-9.018;2023-03-31T12:27:40;111992.50;;;-145.11;52.75
63033;BME280;49121;38.932;-9.018;2023-03-31T12:29:55;111992.50;;;-145.11;53.28
63033;BME280;49121;38.932;-9.018;2023-03-31T12:31:57;111992.50;;;-145.11;53.65
63033;BME280;49121;38.932;-9.018;2023-03-31T12:34:06;111992.50;;;-145.11;54.02
63033;BME280;49121;38.932;-9.018;2023-03-31T12:40:56;111992.50;;;-145.11;53.01
63033;BME280;49121;38.932;-9.018;2023-03-31T12:44:56;111992.50;;;-145.11;54.03
63033;BME280;49121;38.932;-9.018;2023-03-31T12:52:04;111992.50;;;-145.11;50.82
63033;BME280;49121;38.932;-9.018;2023-03-31T12:56:18;111992.50;;;-145.11;50.33
63033;BME280;49121;38.932;-9.018;2023-03-31T13:00:24;111992.50;;;-145.11;49.46
63033;BME280;49121;38.932;-9.018;2023-03-31T13:02:25;111992.50;;;-145.11;47.38
63033;BME280;49121;38.932;-9.018;2023-03-31T13:04:26;111992.50;;;-145.11;46.84
63033;BME280;49121;38.932;-9.018;2023-03-31T13:10:55;111992.50;;;-145.11;48.18
63033;BME280;49121;38.932;-9.018;2023-03-31T13:13:15;111992.50;;;-145.11;47.27
63033;BME280;49121;38.932;-9.018;2023-03-31T13:15:16;111992.50;;;-145.11;47.74
63033;BME280;49121;38.932;-9.018;2023-03-31T13:17:31;111992.50;;;-145.11;48.08
63033;BME280;49121;38.932;-9.018;2023-03-31T13:19:34;111992.50;;;-145.11;49.43
63033;BME280;49121;38.932;-9.018;2023-03-31T13:21:54;111992.50;;;-145.11;49.85
63033;BME280;49121;38.932;-9.018;2023-03-31T13:24:01;111992.50;;;-145.11;50.08